Time;durP1;ratioP1;P1;durP2;ratioP2;P2;SDS_P1;SDS_P2;PMS_P1;PMS_P2;Temp;Humidity;BMP_temperature;BMP_pressure;BME280_temperature;BME280_humidity;BME280_pressure;Samples;Min_cycle;Max_cycle;Signal;HPM_P1;HPM_P2
2023/01/22 00:00:28;;;;;;;33.00;26.63;;;3.00;99.90;;;;;;2107020;28;20098;-70
2023/01/22 00:01:28;;;;;;;36.30;26.92;;;3.00;99.90;;;;;;2108581;28;20032;-70
2023/01/22 00:02:29;;;;;;;34.10;28.10;;;3.00;99.90;;;;;;2106754;28;20023;-70
2023/01/22 00:03:29;;;;;;;33.55;27.33;;;3.00;99.90;;;;;;2108082;28;20019;-70
2023/01/22 00:04:30;;;;;;;36.17;27.17;;;3.00;99.90;;;;;;2109334;28;20036;-70
2023/01/22 00:05:31;;;;;;;35.47;29.48;;;3.00;99.90;;;;;;2107162;28;20024;-70
2023/01/22 00:06:31;;;;;;;37.10;28.60;;;3.00;99.90;;;;;;2109174;28;20592;-70
2023/01/22 00:07:32;;;;;;;37.00;28.92;;;3.00;99.90;;;;;;2108179;28;20762;-70
2023/01/22 00:08:33;;;;;;;36.15;28.58;;;3.00;99.90;;;;;;2109133;28;20024;-70
2023/01/22 00:09:34;;;;;;;35.88;28.75;;;3.00;99.90;;;;;;2107211;28;20081;-70
2023/01/22 00:10:34;;;;;;;38.85;30.27;;;3.00;99.90;;;;;;2108943;28;20110;-70
2023/01/22 00:11:35;;;;;;;37.88;30.40;;;3.00;99.90;;;;;;2107578;28;20069;-70
2023/01/22 00:12:35;;;;;;;39.40;31.55;;;3.00;99.90;;;;;;2109857;28;20031;-70
2023/01/22 00:13:36;;;;;;;37.20;30.30;;;3.00;99.90;;;;;;2108457;28;20553;-70
2023/01/22 00:14:36;;;;;;;37.65;29.90;;;3.10;99.90;;;;;;2108568;28;20063;-70
2023/01/22 00:15:37;;;;;;;39.45;30.48;;;3.10;99.90;;;;;;2107001;28;20031;-70
2023/01/22 00:16:40;;;;;;;35.67;29.60;;;3.10;99.90;;;;;;2107842;28;20054;-70
2023/01/22 00:17:40;;;;;;;36.78;30.13;;;3.10;99.90;;;;;;2109320;28;20050;-70
2023/01/22 00:18:41;;;;;;;38.67;30.02;;;3.10;99.90;;;;;;2108532;28;20027;-70
2023/01/22 00:19:42;;;;;;;37.78;30.38;;;3.10;99.90;;;;;;2109243;28;20036;-70
2023/01/22 00:20:50;;;;;;;37.03;28.30;;;3.10;99.90;;;;;;2108637;28;20111;-70
2023/01/22 00:21:51;;;;;;;37.22;28.95;;;3.10;99.90;;;;;;2107575;28;20423;-70
2023/01/22 00:22:51;;;;;;;38.15;30.25;;;3.10;99.90;;;;;;2109833;28;20058;-70
2023/01/22 00:23:52;;;;;;;35.55;27.88;;;3.10;99.90;;;;;;2109148;28;20499;-70
2023/01/22 00:24:53;;;;;;;34.72;28.42;;;3.10;99.90;;;;;;2107967;28;20019;-70
2023/01/22 00:26:14;;;;;;;33.45;28.33;;;3.10;99.90;;;;;;2107757;28;20025;-70
2023/01/22 00:27:14;;;;;;;34.83;27.33;;;3.10;99.90;;;;;;2107493;28;20067;-70
2023/01/22 00:28:16;;;;;;;32.90;27.85;;;3.10;99.90;;;;;;2105936;28;20027;-70
2023/01/22 00:29:16;;;;;;;33.25;27.63;;;3.10;99.90;;;;;;2106181;28;20433;-70
2023/01/22 00:30:17;;;;;;;34.95;27.35;;;3.10;99.90;;;;;;2108589;28;20096;-70
2023/01/22 00:31:18;;;;;;;34.80;28.55;;;3.10;99.90;;;;;;2107715;28;20028;-70
2023/01/22 00:32:19;;;;;;;35.83;28.00;;;3.10;99.90;;;;;;2107252;28;20028;-70
2023/01/22 00:33:19;;;;;;;34.83;27.88;;;3.10;99.90;;;;;;2106757;28;20028;-70
2023/01/22 00:34:19;;;;;;;34.60;27.63;;;3.10;99.90;;;;;;2107600;28;20024;-70
2023/01/22 00:35:20;;;;;;;34.05;27.45;;;3.10;99.90;;;;;;2109147;28;20028;-70
2023/01/22 00:36:21;;;;;;;32.88;26.60;;;3.10;99.90;;;;;;2107352;28;20102;-70
2023/01/22 00:37:21;;;;;;;31.33;26.33;;;3.10;99.90;;;;;;2106788;28;20024;-70
2023/01/22 00:38:22;;;;;;;34.03;28.08;;;3.10;99.90;;;;;;2106677;28;20457;-70
2023/01/22 00:39:23;;;;;;;30.42;26.42;;;3.10;99.90;;;;;;2108280;28;20051;-70
2023/01/22 00:40:24;;;;;;;32.22;26.80;;;3.10;99.90;;;;;;2108930;28;20031;-70
2023/01/22 00:41:24;;;;;;;32.50;25.95;;;3.10;99.90;;;;;;2107054;28;20018;-70
2023/01/22 00:42:25;;;;;;;32.15;25.95;;;3.10;99.90;;;;;;2107254;28;20795;-70
2023/01/22 00:43:25;;;;;;;30.73;26.40;;;3.10;99.90;;;;;;2107534;28;20084;-70
2023/01/22 00:44:26;;;;;;;33.05;26.92;;;3.10;99.90;;;;;;2107502;28;20084;-70
2023/01/22 00:45:26;;;;;;;32.47;26.00;;;3.10;99.90;;;;;;2109177;28;20039;-70
2023/01/22 00:46:30;;;;;;;31.33;26.25;;;3.10;99.90;;;;;;2109555;28;20038;-70
2023/01/22 00:47:30;;;;;;;34.33;26.80;;;3.10;99.90;;;;;;2108822;28;20083;-70
2023/01/22 00:48:31;;;;;;;33.00;27.58;;;3.10;99.90;;;;;;2109062;28;20035;-70
2023/01/22 00:49:31;;;;;;;33.33;26.65;;;3.10;99.90;;;;;;2109404;28;20045;-70
2023/01/22 00:50:32;;;;;;;31.23;25.63;;;3.10;99.90;;;;;;2105798;28;20046;-70
2023/01/22 00:51:35;;;;;;;30.38;25.48;;;3.10;99.90;;;;;;2107631;28;20115;-70
2023/01/22 00:52:38;;;;;;;32.40;26.83;;;3.10;99.90;;;;;;2108307;28;20115;-70
2023/01/22 00:53:40;;;;;;;33.80;27.35;;;3.20;99.90;;;;;;2108265;28;20669;-70
2023/01/22 00:54:40;;;;;;;32.17;26.85;;;3.20;99.90;;;;;;2104899;28;20452;-70
2023/01/22 00:55:57;;;;;;;32.90;26.30;;;3.10;99.90;;;;;;2106272;28;20394;-70
2023/01/22 00:56:57;;;;;;;32.85;27.08;;;3.20;99.90;;;;;;2109773;28;20683;-70
2023/01/22 00:57:58;;;;;;;30.38;26.08;;;3.10;99.90;;;;;;2109606;28;20384;-70
2023/01/22 00:58:59;;;;;;;32.33;26.48;;;3.10;99.90;;;;;;2108765;28;20041;-70
2023/01/22 00:59:59;;;;;;;32.13;27.13;;;3.20;99.90;;;;;;2106919;28;20023;-69
2023/01/22 01:01:03;;;;;;;32.38;27.98;;;3.10;99.90;;;;;;2109004;28;20043;-69
2023/01/22 01:02:05;;;;;;;32.17;26.00;;;3.10;99.90;;;;;;2108630;28;20465;-70
2023/01/22 01:04:25;;;;;;;33.33;26.98;;;3.10;99.90;;;;;;2110203;28;20027;-70
2023/01/22 01:05:25;;;;;;;29.75;26.48;;;3.10;99.90;;;;;;2107986;28;20535;-70
2023/01/22 01:06:26;;;;;;;33.25;27.58;;;3.10;99.90;;;;;;2107026;28;20114;-70
2023/01/22 01:07:26;;;;;;;34.08;26.67;;;3.10;99.90;;;;;;2107878;28;20028;-70
2023/01/22 01:08:29;;;;;;;32.03;27.05;;;3.10;99.90;;;;;;2108774;28;20034;-70
2023/01/22 01:09:30;;;;;;;34.85;26.90;;;3.10;99.90;;;;;;2108453;28;20450;-70
2023/01/22 01:10:30;;;;;;;32.13;27.23;;;3.10;99.90;;;;;;2107333;28;20028;-70
2023/01/22 01:11:31;;;;;;;31.40;26.92;;;3.20;99.90;;;;;;2109401;28;20028;-70
2023/01/22 01:12:32;;;;;;;33.28;27.30;;;3.20;99.90;;;;;;2107638;28;20395;-70
2023/01/22 01:13:38;;;;;;;32.22;27.02;;;3.20;99.90;;;;;;2104496;28;20055;-70
2023/01/22 01:14:38;;;;;;;32.45;27.00;;;3.20;99.90;;;;;;2107610;28;20031;-70
2023/01/22 01:15:39;;;;;;;29.52;26.08;;;3.10;99.90;;;;;;2107624;28;20020;-70
2023/01/22 01:16:42;;;;;;;30.55;26.25;;;3.20;99.90;;;;;;2109413;28;20899;-70
2023/01/22 01:17:42;;;;;;;33.90;28.05;;;3.10;99.90;;;;;;2109991;28;20068;-70
2023/01/22 01:18:43;;;;;;;31.58;26.75;;;3.20;99.90;;;;;;2109024;28;20024;-70
2023/01/22 01:19:43;;;;;;;31.30;25.63;;;3.10;99.90;;;;;;2108781;28;20388;-70
2023/01/22 01:20:44;;;;;;;31.33;25.88;;;3.10;99.90;;;;;;2109480;28;20027;-70
2023/01/22 01:21:46;;;;;;;29.30;24.80;;;3.10;99.90;;;;;;2107174;28;20099;-70
2023/01/22 01:22:46;;;;;;;32.25;26.13;;;3.10;99.90;;;;;;2108371;28;20103;-70
2023/01/22 01:23:47;;;;;;;29.70;25.35;;;3.10;99.90;;;;;;2108524;28;20085;-70
2023/01/22 01:24:47;;;;;;;30.60;24.67;;;3.10;99.90;;;;;;2109070;28;20178;-70
2023/01/22 01:25:48;;;;;;;30.30;24.10;;;3.10;99.90;;;;;;2108271;28;20467;-70
2023/01/22 01:26:48;;;;;;;30.30;25.42;;;3.10;99.90;;;;;;2107919;28;20480;-70
2023/01/22 01:27:49;;;;;;;28.85;25.13;;;3.10;99.90;;;;;;2108824;28;20032;-70
2023/01/22 01:28:51;;;;;;;30.15;24.83;;;3.10;99.90;;;;;;2110477;28;20045;-70
2023/01/22 01:29:51;;;;;;;29.73;24.60;;;3.10;99.90;;;;;;2107616;28;20372;-70
2023/01/22 01:30:52;;;;;;;29.35;24.48;;;3.10;99.90;;;;;;2109703;28;20084;-70
2023/01/22 01:31:53;;;;;;;28.40;23.75;;;3.10;99.90;;;;;;2110455;28;20032;-70
2023/01/22 01:32:54;;;;;;;28.88;25.20;;;3.10;99.90;;;;;;2110399;28;20024;-70
2023/01/22 01:33:54;;;;;;;27.23;23.02;;;3.10;99.90;;;;;;2107676;28;20399;-70
2023/01/22 01:34:55;;;;;;;27.05;23.77;;;3.10;99.90;;;;;;2109547;28;20034;-70
2023/01/22 01:36:04;;;;;;;28.80;24.27;;;3.10;99.90;;;;;;2110253;28;20023;-70
2023/01/22 01:37:05;;;;;;;28.65;24.00;;;3.10;99.90;;;;;;2108725;28;20143;-70
2023/01/22 01:38:06;;;;;;;28.65;23.95;;;3.10;99.90;;;;;;2114436;27;20031;-70
2023/01/22 01:39:08;;;;;;;27.45;24.40;;;3.10;99.90;;;;;;2113640;27;20609;-70
2023/01/22 01:40:09;;;;;;;28.52;24.73;;;3.10;99.90;;;;;;2108448;28;20019;-70
2023/01/22 01:41:12;;;;;;;26.48;23.25;;;3.10;99.90;;;;;;2108632;28;20424;-71
2023/01/22 01:42:13;;;;;;;29.42;24.45;;;3.10;99.90;;;;;;2112461;27;20027;-70
2023/01/22 01:43:16;;;;;;;28.85;24.85;;;3.10;99.90;;;;;;2112193;27;20045;-70
2023/01/22 01:44:22;;;;;;;27.70;23.30;;;3.10;99.90;;;;;;2109351;28;20047;-70
2023/01/22 01:45:31;;;;;;;25.98;22.27;;;3.10;99.90;;;;;;2110641;28;20088;-70
2023/01/22 01:46:50;;;;;;;28.27;22.88;;;3.10;99.90;;;;;;2108975;28;20043;-70
2023/01/22 01:48:05;;;;;;;27.23;23.10;;;3.10;99.90;;;;;;2109197;28;20047;-70
2023/01/22 01:49:31;;;;;;;26.05;23.25;;;3.10;99.90;;;;;;2103925;28;20048;-70
2023/01/22 01:50:33;;;;;;;27.15;22.85;;;3.00;99.90;;;;;;2109646;28;20423;-70
2023/01/22 01:51:35;;;;;;;25.83;22.73;;;3.00;99.90;;;;;;2108311;28;20072;-70
2023/01/22 01:52:36;;;;;;;27.77;24.60;;;3.10;99.90;;;;;;2108265;28;20114;-70
2023/01/22 01:53:38;;;;;;;29.25;24.50;;;3.00;99.90;;;;;;2109536;28;20020;-70
2023/01/22 01:54:44;;;;;;;27.02;23.48;;;3.00;99.90;;;;;;2106734;28;20031;-69
2023/01/22 01:55:45;;;;;;;27.25;22.80;;;3.10;99.90;;;;;;2107036;28;20098;-70
2023/01/22 01:56:51;;;;;;;26.65;23.75;;;3.00;99.90;;;;;;2108203;28;20152;-70
2023/01/22 01:57:54;;;;;;;27.55;22.70;;;3.00;99.90;;;;;;2108588;28;20490;-70
2023/01/22 01:59:01;;;;;;;27.77;22.33;;;3.00;99.90;;;;;;2110761;28;20024;-70
2023/01/22 02:00:09;;;;;;;26.17;23.30;;;3.10;99.90;;;;;;2108968;28;20009;-70
2023/01/22 02:01:12;;;;;;;25.02;22.17;;;3.00;99.90;;;;;;2110275;28;20026;-70
2023/01/22 02:02:14;;;;;;;26.65;23.00;;;3.00;99.90;;;;;;2110511;28;20023;-70
2023/01/22 02:03:14;;;;;;;28.27;24.27;;;3.00;99.90;;;;;;2109176;28;20051;-70
2023/01/22 02:04:15;;;;;;;26.15;23.15;;;3.00;99.90;;;;;;2106881;28;20024;-70
2023/01/22 02:05:20;;;;;;;26.02;22.02;;;3.00;99.90;;;;;;2110607;28;20020;-70
2023/01/22 02:06:21;;;;;;;27.92;23.40;;;3.00;99.90;;;;;;2110363;28;20023;-70
2023/01/22 02:07:21;;;;;;;26.02;22.77;;;3.00;99.90;;;;;;2109722;28;20106;-71
2023/01/22 02:08:22;;;;;;;26.48;23.08;;;3.00;99.90;;;;;;2107298;28;20114;-70
2023/01/22 02:09:23;;;;;;;24.38;21.77;;;3.00;99.90;;;;;;2108759;28;20031;-70
2023/01/22 02:10:24;;;;;;;25.70;21.88;;;3.00;99.90;;;;;;2108031;28;20023;-70
2023/01/22 02:11:26;;;;;;;26.40;22.02;;;3.00;99.90;;;;;;2106949;28;20704;-70
2023/01/22 02:12:26;;;;;;;26.85;21.90;;;3.00;99.90;;;;;;2109956;28;20024;-70
2023/01/22 02:13:32;;;;;;;24.35;21.75;;;3.00;99.90;;;;;;2109299;28;20080;-70
2023/01/22 02:14:38;;;;;;;25.63;22.85;;;3.00;99.90;;;;;;2108599;28;20107;-70
2023/01/22 02:15:40;;;;;;;23.63;20.67;;;3.00;99.90;;;;;;2111139;27;20024;-70
2023/01/22 02:16:40;;;;;;;24.77;21.60;;;3.00;99.90;;;;;;2112298;27;20053;-70
2023/01/22 02:17:41;;;;;;;25.02;21.92;;;3.00;99.90;;;;;;2107780;28;20020;-70
2023/01/22 02:18:41;;;;;;;24.42;21.48;;;3.00;99.90;;;;;;2107682;28;20028;-70
2023/01/22 02:19:42;;;;;;;23.58;20.80;;;3.00;99.90;;;;;;2108783;28;20027;-70
2023/01/22 02:20:54;;;;;;;22.67;20.17;;;3.00;99.90;;;;;;2108494;28;20030;-70
2023/01/22 02:21:54;;;;;;;24.55;21.00;;;3.00;99.90;;;;;;2107036;28;20089;-70
2023/01/22 02:22:55;;;;;;;24.88;20.85;;;3.00;99.90;;;;;;2109074;28;20024;-70
2023/01/22 02:23:56;;;;;;;23.48;20.95;;;3.00;99.90;;;;;;2110076;28;20043;-70
2023/01/22 02:24:57;;;;;;;22.95;20.55;;;3.00;99.90;;;;;;2109824;28;20035;-70
2023/01/22 02:25:58;;;;;;;24.73;21.75;;;3.00;99.90;;;;;;2108978;28;20024;-70
2023/01/22 02:26:59;;;;;;;21.42;19.20;;;3.00;99.90;;;;;;2108103;28;20052;-70
2023/01/22 02:28:00;;;;;;;23.63;21.15;;;3.00;99.90;;;;;;2109066;28;20031;-70
2023/01/22 02:29:01;;;;;;;24.42;21.13;;;3.00;99.90;;;;;;2108910;28;20657;-70
2023/01/22 02:30:01;;;;;;;22.27;19.88;;;3.10;99.90;;;;;;2109529;28;20022;-70
2023/01/22 02:31:02;;;;;;;24.92;20.98;;;3.00;99.90;;;;;;2109270;28;20027;-70
2023/01/22 02:32:03;;;;;;;24.35;21.73;;;3.10;99.90;;;;;;2109798;28;20024;-70
2023/01/22 02:33:03;;;;;;;22.20;19.85;;;3.10;99.90;;;;;;2108167;28;20027;-70
2023/01/22 02:34:05;;;;;;;23.88;20.15;;;3.10;99.90;;;;;;2107761;28;20031;-70
2023/01/22 02:35:06;;;;;;;22.58;20.27;;;3.00;99.90;;;;;;2110356;27;20099;-70
2023/01/22 02:36:07;;;;;;;21.67;19.42;;;3.00;99.90;;;;;;2108776;28;20024;-70
2023/01/22 02:37:08;;;;;;;21.88;19.67;;;3.00;99.90;;;;;;2108262;28;20028;-70
2023/01/22 02:38:09;;;;;;;23.85;20.70;;;3.00;99.90;;;;;;2107624;28;20011;-70
2023/01/22 02:39:09;;;;;;;22.58;19.52;;;3.00;99.90;;;;;;2106734;28;20012;-70
2023/01/22 02:40:10;;;;;;;23.25;20.52;;;3.00;99.90;;;;;;2109790;28;20478;-70
2023/01/22 02:41:11;;;;;;;22.48;20.08;;;3.00;99.90;;;;;;2109138;28;20533;-70
2023/01/22 02:42:12;;;;;;;22.42;19.98;;;3.00;99.90;;;;;;2108387;28;20032;-70
2023/01/22 02:43:13;;;;;;;22.30;19.90;;;3.00;99.90;;;;;;2108038;28;20024;-70
2023/01/22 02:44:13;;;;;;;22.13;19.75;;;3.00;99.90;;;;;;2105992;28;20028;-70
2023/01/22 02:45:14;;;;;;;22.58;20.02;;;3.00;99.90;;;;;;2110872;28;20027;-70
2023/01/22 02:46:14;;;;;;;22.98;20.15;;;3.00;99.90;;;;;;2110785;28;20497;-70
2023/01/22 02:47:15;;;;;;;23.38;20.25;;;3.00;99.90;;;;;;2107365;28;20020;-70
2023/01/22 02:48:15;;;;;;;23.63;20.70;;;3.00;99.90;;;;;;2108405;28;20027;-70
2023/01/22 02:49:16;;;;;;;21.25;18.92;;;3.00;99.90;;;;;;2108336;28;20031;-70
2023/01/22 02:50:17;;;;;;;21.33;19.05;;;3.00;99.90;;;;;;2108147;28;20036;-70
2023/01/22 02:51:17;;;;;;;22.98;20.58;;;3.00;99.90;;;;;;2109530;28;20107;-70
2023/01/22 02:52:18;;;;;;;20.70;18.50;;;3.00;99.90;;;;;;2108680;28;20043;-70
2023/01/22 02:53:18;;;;;;;21.45;19.25;;;2.90;99.90;;;;;;2110222;27;20038;-70
2023/01/22 02:54:19;;;;;;;21.65;19.35;;;3.00;99.90;;;;;;2108249;28;20502;-70
2023/01/22 02:55:19;;;;;;;21.55;19.30;;;2.90;99.90;;;;;;2109684;28;20024;-70
2023/01/22 02:56:21;;;;;;;21.33;19.13;;;2.90;99.90;;;;;;2110191;28;20027;-70
2023/01/22 02:57:21;;;;;;;21.08;18.90;;;2.90;99.90;;;;;;2108077;28;20352;-70
2023/01/22 02:58:22;;;;;;;23.80;19.85;;;2.90;99.90;;;;;;2107839;28;20082;-70
2023/01/22 02:59:22;;;;;;;21.35;19.08;;;2.90;99.90;;;;;;2107549;28;20072;-70
2023/01/22 03:00:23;;;;;;;20.83;18.67;;;2.90;99.90;;;;;;2107929;28;20077;-70
2023/01/22 03:01:24;;;;;;;20.45;17.77;;;2.90;99.90;;;;;;2107961;28;20027;-70
2023/01/22 03:02:24;;;;;;;20.27;17.90;;;2.90;99.90;;;;;;2109167;28;20024;-70
2023/01/22 03:03:25;;;;;;;20.92;18.67;;;2.90;99.90;;;;;;2108948;28;20505;-70
2023/01/22 03:04:27;;;;;;;19.92;17.70;;;2.90;99.90;;;;;;2108215;28;20023;-70
2023/01/22 03:05:29;;;;;;;20.55;18.05;;;2.90;99.90;;;;;;2106895;28;20028;-70
2023/01/22 03:06:30;;;;;;;20.20;18.17;;;2.90;99.90;;;;;;2107758;28;20023;-70
2023/01/22 03:07:40;;;;;;;21.00;18.80;;;2.90;99.90;;;;;;2106536;28;20586;-70
2023/01/22 03:08:42;;;;;;;20.13;18.13;;;2.90;99.90;;;;;;2107044;28;20128;-70
2023/01/22 03:09:46;;;;;;;21.23;18.92;;;3.00;99.90;;;;;;2107985;28;20020;-70
2023/01/22 03:10:46;;;;;;;22.27;19.40;;;3.00;99.90;;;;;;2107111;28;20032;-70
2023/01/22 03:11:47;;;;;;;20.25;18.15;;;3.00;99.90;;;;;;2108085;28;20035;-70
2023/01/22 03:22:02;;;;;;;21.98;18.80;;;2.80;99.90;;;;;;2110106;28;20032;-70
2023/01/22 03:23:03;;;;;;;21.25;19.05;;;2.80;99.90;;;;;;2109057;28;20131;-70
2023/01/22 03:24:03;;;;;;;21.40;18.35;;;2.80;99.90;;;;;;2110605;28;20031;-70
2023/01/22 03:25:04;;;;;;;21.70;19.40;;;2.80;99.90;;;;;;2109190;28;20035;-70
2023/01/22 03:26:06;;;;;;;21.40;19.15;;;2.80;99.90;;;;;;2109472;28;20494;-70
2023/01/22 03:27:07;;;;;;;21.05;18.95;;;2.80;99.90;;;;;;2110167;28;20016;-70
2023/01/22 03:28:07;;;;;;;23.15;19.08;;;2.80;99.90;;;;;;2108619;28;20024;-70
2023/01/22 03:29:08;;;;;;;21.27;19.13;;;2.80;99.90;;;;;;2108215;28;20115;-70
2023/01/22 03:30:09;;;;;;;21.80;19.60;;;2.80;99.90;;;;;;2108840;28;20023;-70
2023/01/22 03:31:10;;;;;;;21.38;19.23;;;2.80;99.90;;;;;;2110332;28;20023;-70
2023/01/22 03:32:11;;;;;;;21.80;19.30;;;2.80;99.90;;;;;;2110530;28;20757;-70
2023/01/22 03:33:12;;;;;;;21.63;19.20;;;2.80;99.90;;;;;;2108766;28;20453;-70
2023/01/22 03:34:18;;;;;;;22.63;19.83;;;2.80;99.90;;;;;;2108675;28;20019;-70
2023/01/22 03:35:20;;;;;;;21.88;19.58;;;2.80;99.90;;;;;;2109979;28;20023;-70
2023/01/22 03:36:20;;;;;;;20.48;18.40;;;2.80;99.90;;;;;;2109674;28;20020;-70
2023/01/22 03:37:21;;;;;;;22.15;19.88;;;2.80;99.90;;;;;;2106914;28;20031;-70
2023/01/22 03:38:21;;;;;;;23.02;20.65;;;2.80;99.90;;;;;;2107855;28;20028;-70
2023/01/22 03:39:22;;;;;;;22.33;19.98;;;2.80;99.90;;;;;;2107383;28;20036;-70
2023/01/22 03:40:23;;;;;;;22.35;19.95;;;2.80;99.90;;;;;;2106426;28;20015;-70
2023/01/22 03:41:23;;;;;;;23.35;20.85;;;2.90;99.90;;;;;;2107254;28;20032;-70
2023/01/22 03:42:24;;;;;;;21.33;19.15;;;2.80;99.90;;;;;;2108538;28;20093;-70
2023/01/22 03:43:24;;;;;;;21.25;19.08;;;2.80;99.90;;;;;;2106083;28;20095;-70
2023/01/22 03:44:25;;;;;;;23.42;21.02;;;2.80;99.90;;;;;;2107804;28;20023;-70
2023/01/22 03:45:25;;;;;;;22.75;20.08;;;2.80;99.90;;;;;;2107406;28;20035;-70
2023/01/22 03:46:26;;;;;;;23.25;20.73;;;2.80;99.90;;;;;;2108482;28;20552;-70
2023/01/22 03:47:27;;;;;;;22.80;20.50;;;2.80;99.90;;;;;;2109647;28;20032;-71
2023/01/22 03:48:28;;;;;;;22.50;20.20;;;2.80;99.90;;;;;;2107592;28;20073;-70
2023/01/22 03:49:28;;;;;;;24.13;20.88;;;2.80;99.90;;;;;;2108608;28;20124;-70
2023/01/22 03:50:29;;;;;;;25.05;21.75;;;2.80;99.90;;;;;;2100668;28;20055;-70
2023/01/22 03:51:29;;;;;;;22.85;20.60;;;2.70;99.90;;;;;;2109168;28;20109;-70
2023/01/22 03:52:30;;;;;;;23.63;21.13;;;2.70;99.90;;;;;;2107886;28;20028;-70
2023/01/22 03:53:31;;;;;;;24.73;21.92;;;2.80;99.90;;;;;;2109236;28;20028;-71
2023/01/22 03:54:32;;;;;;;24.75;22.15;;;2.80;99.90;;;;;;2107571;28;20113;-70
2023/01/22 03:55:32;;;;;;;24.63;22.10;;;2.70;99.90;;;;;;2109250;28;20020;-70
2023/01/22 03:56:33;;;;;;;23.80;21.25;;;2.70;99.90;;;;;;2108578;28;20479;-70
2023/01/22 03:57:33;;;;;;;25.48;21.95;;;2.70;99.90;;;;;;2108176;28;20024;-70
2023/01/22 03:58:34;;;;;;;23.65;21.30;;;2.70;99.90;;;;;;2107400;28;21345;-70
2023/01/22 03:59:34;;;;;;;24.50;21.90;;;2.70;99.90;;;;;;2107464;28;20502;-70
2023/01/22 04:00:35;;;;;;;23.95;21.35;;;2.70;99.90;;;;;;2109474;28;20020;-70
2023/01/22 04:01:36;;;;;;;23.45;21.05;;;2.70;99.90;;;;;;2108292;28;20118;-70
2023/01/22 04:02:37;;;;;;;23.90;21.40;;;2.70;99.90;;;;;;2108437;28;20019;-70
2023/01/22 04:03:37;;;;;;;23.42;21.02;;;2.70;99.90;;;;;;2107473;28;20015;-70
2023/01/22 04:04:38;;;;;;;24.45;21.58;;;2.70;99.90;;;;;;2108370;28;20051;-70
2023/01/22 04:05:38;;;;;;;23.52;21.13;;;2.70;99.90;;;;;;2107231;28;20028;-70
2023/01/22 04:06:39;;;;;;;28.30;21.95;;;2.70;99.90;;;;;;2107965;28;20032;-70
2023/01/22 04:07:39;;;;;;;24.85;21.40;;;2.70;99.90;;;;;;2109170;28;20020;-70
2023/01/22 04:08:42;;;;;;;24.77;20.50;;;2.70;99.90;;;;;;2106382;28;20036;-70
2023/01/22 04:09:42;;;;;;;23.15;20.42;;;2.70;99.90;;;;;;2108747;28;20105;-70
2023/01/22 04:10:43;;;;;;;23.85;21.35;;;2.80;99.90;;;;;;2107838;28;20023;-70
2023/01/22 04:11:43;;;;;;;23.23;20.75;;;2.80;99.90;;;;;;2106850;28;20026;-70
2023/01/22 04:12:44;;;;;;;24.15;21.65;;;2.80;99.90;;;;;;2107444;28;20514;-70
2023/01/22 04:13:45;;;;;;;23.45;21.00;;;2.80;99.90;;;;;;2109529;28;20732;-70
2023/01/22 04:14:46;;;;;;;23.77;21.27;;;2.80;99.90;;;;;;2108661;28;20020;-70
2023/01/22 04:15:46;;;;;;;24.52;21.60;;;2.80;99.90;;;;;;2108072;28;20027;-70
2023/01/22 04:16:47;;;;;;;23.67;21.17;;;2.80;99.90;;;;;;2109120;28;20051;-70
2023/01/22 04:17:47;;;;;;;24.40;21.90;;;2.80;99.90;;;;;;2106674;28;20040;-70
2023/01/22 04:18:48;;;;;;;23.35;20.95;;;2.80;99.90;;;;;;2106568;28;20024;-70
2023/01/22 04:19:49;;;;;;;24.05;21.65;;;2.80;99.90;;;;;;2108510;28;20043;-70
2023/01/22 04:20:51;;;;;;;24.80;22.20;;;2.80;99.90;;;;;;2107283;28;20020;-70
2023/01/22 04:21:51;;;;;;;24.98;22.38;;;2.80;99.90;;;;;;2107474;28;20087;-70
2023/01/22 04:22:52;;;;;;;23.48;21.08;;;2.80;99.90;;;;;;2107538;28;20015;-70
2023/01/22 04:23:52;;;;;;;24.65;22.15;;;2.80;99.90;;;;;;2108482;28;20547;-70
2023/01/22 04:24:53;;;;;;;24.90;22.35;;;2.80;99.90;;;;;;2106363;28;20039;-70
2023/01/22 04:25:54;;;;;;;24.42;21.58;;;2.80;99.90;;;;;;2107334;28;20024;-70
2023/01/22 04:26:54;;;;;;;24.15;21.63;;;2.80;99.90;;;;;;2107680;28;20047;-70
2023/01/22 04:27:55;;;;;;;26.55;23.20;;;2.80;99.90;;;;;;2106797;28;20027;-70
2023/01/22 04:28:55;;;;;;;24.45;21.90;;;2.80;99.90;;;;;;2107698;28;20036;-70
2023/01/22 04:29:56;;;;;;;24.08;21.73;;;2.80;99.90;;;;;;2106178;28;20026;-70
2023/01/22 04:30:56;;;;;;;25.90;23.10;;;2.80;99.90;;;;;;2107587;28;20543;-71
2023/01/22 04:31:57;;;;;;;26.35;22.65;;;2.80;99.90;;;;;;2110349;28;20561;-70
2023/01/22 04:32:57;;;;;;;25.17;22.20;;;2.80;99.90;;;;;;2107931;28;20059;-70
2023/01/22 04:33:58;;;;;;;24.02;21.40;;;2.80;99.90;;;;;;2107447;28;20051;-70
2023/01/22 04:34:58;;;;;;;24.23;21.63;;;2.80;99.90;;;;;;2106472;28;20024;-70
2023/01/22 04:35:59;;;;;;;25.70;22.83;;;2.80;99.90;;;;;;2105965;28;20055;-70
2023/01/22 04:36:59;;;;;;;27.02;21.83;;;2.70;99.90;;;;;;2106469;28;20020;-70
2023/01/22 04:38:00;;;;;;;24.23;21.33;;;2.80;99.90;;;;;;2108380;28;20035;-70
2023/01/22 04:39:01;;;;;;;27.17;22.58;;;2.70;99.90;;;;;;2108402;28;20077;-70
2023/01/22 04:40:04;;;;;;;25.15;22.65;;;2.70;99.90;;;;;;2105327;28;20020;-70
2023/01/22 04:41:05;;;;;;;23.85;21.35;;;2.80;99.90;;;;;;2107970;28;20053;-70
2023/01/22 04:42:05;;;;;;;25.27;22.58;;;2.70;99.90;;;;;;2109310;28;20069;-70
2023/01/22 04:43:08;;;;;;;24.83;21.83;;;2.70;99.90;;;;;;2109640;28;20124;-70
2023/01/22 04:44:09;;;;;;;23.70;21.25;;;2.70;99.90;;;;;;2108268;28;20015;-70
2023/01/22 04:45:10;;;;;;;25.27;22.58;;;2.70;99.90;;;;;;2108860;28;20027;-70
2023/01/22 04:46:10;;;;;;;25.52;22.90;;;2.70;99.90;;;;;;2107382;28;20061;-70
2023/01/22 04:47:11;;;;;;;23.40;20.95;;;2.70;99.90;;;;;;2109438;28;20032;-70
2023/01/22 04:48:12;;;;;;;25.83;21.35;;;2.70;99.90;;;;;;2109298;28;20027;-70
2023/01/22 04:49:13;;;;;;;24.90;22.20;;;2.70;99.90;;;;;;2108164;28;20042;-70
2023/01/22 04:50:19;;;;;;;25.33;22.45;;;2.70;99.90;;;;;;2107259;28;20114;-70
2023/01/22 04:51:19;;;;;;;24.58;21.98;;;2.70;99.90;;;;;;2109646;28;20012;-70
2023/01/22 04:52:20;;;;;;;26.08;23.38;;;2.70;99.90;;;;;;2107968;28;20031;-70
2023/01/22 04:53:20;;;;;;;24.55;21.90;;;2.70;99.90;;;;;;2109061;28;20159;-70
2023/01/22 04:54:21;;;;;;;22.77;20.55;;;2.70;99.90;;;;;;2109985;28;20028;-70
2023/01/22 04:55:22;;;;;;;25.25;22.63;;;2.70;99.90;;;;;;2108603;28;20027;-70
2023/01/22 04:56:23;;;;;;;23.90;21.42;;;2.70;99.90;;;;;;2110031;28;20106;-70
2023/01/22 04:57:23;;;;;;;24.77;22.17;;;2.70;99.90;;;;;;2108339;28;20028;-70
2023/01/22 04:58:24;;;;;;;23.33;20.88;;;2.70;99.90;;;;;;2108938;28;20597;-70
2023/01/22 04:59:24;;;;;;;25.08;22.02;;;2.70;99.90;;;;;;2107333;28;20103;-70
2023/01/22 05:00:26;;;;;;;24.75;21.88;;;2.70;99.90;;;;;;2110352;28;20031;-70
2023/01/22 05:01:27;;;;;;;25.17;22.55;;;2.70;99.90;;;;;;2109678;28;20467;-70
2023/01/22 05:02:27;;;;;;;23.67;21.17;;;2.70;99.90;;;;;;2109902;28;20602;-70
2023/01/22 05:03:28;;;;;;;24.35;21.38;;;2.60;99.90;;;;;;2107718;28;20028;-70
2023/01/22 05:04:28;;;;;;;24.80;22.25;;;2.60;99.90;;;;;;2109614;28;20137;-70
2023/01/22 05:05:32;;;;;;;23.35;20.98;;;2.60;99.90;;;;;;2108525;28;20115;-70
2023/01/22 05:06:32;;;;;;;22.90;20.50;;;2.60;99.90;;;;;;2107868;28;20027;-70
2023/01/22 05:07:33;;;;;;;23.48;20.73;;;2.60;99.90;;;;;;2106942;28;20019;-70
2023/01/22 05:08:34;;;;;;;26.13;21.98;;;2.60;99.90;;;;;;2109401;28;20031;-70
2023/01/22 05:09:34;;;;;;;25.75;23.05;;;2.60;99.90;;;;;;2107519;28;20856;-70
2023/01/22 05:10:35;;;;;;;23.48;21.08;;;2.60;99.90;;;;;;2109872;28;20015;-70
2023/01/22 05:11:35;;;;;;;24.38;21.85;;;2.60;99.90;;;;;;2109327;28;20026;-70
2023/01/22 05:12:36;;;;;;;23.17;20.80;;;2.70;99.90;;;;;;2108732;28;20036;-70
2023/01/22 05:13:36;;;;;;;23.45;20.02;;;2.60;99.90;;;;;;2110879;28;20818;-70
2023/01/22 05:14:37;;;;;;;23.02;20.55;;;2.60;99.90;;;;;;2111147;28;20032;-70
2023/01/22 05:15:37;;;;;;;23.85;21.33;;;2.60;99.90;;;;;;2109686;28;20032;-70
2023/01/22 05:16:38;;;;;;;25.35;21.52;;;2.70;99.90;;;;;;2108550;28;20086;-70
2023/01/22 05:17:38;;;;;;;22.85;20.50;;;2.70;99.90;;;;;;2107615;28;20646;-70
2023/01/22 05:18:39;;;;;;;24.05;21.38;;;2.70;99.90;;;;;;2107757;28;20027;-70
2023/01/22 05:19:40;;;;;;;22.40;20.10;;;2.70;99.90;;;;;;2109537;28;20031;-70
2023/01/22 05:20:40;;;;;;;24.15;21.75;;;2.70;99.90;;;;;;2109470;28;20011;-70
2023/01/22 05:21:41;;;;;;;23.27;20.85;;;2.70;99.90;;;;;;2108746;28;20103;-70
2023/01/22 05:22:41;;;;;;;24.23;20.92;;;2.70;99.90;;;;;;2110310;28;20096;-70
2023/01/22 05:23:43;;;;;;;23.25;20.95;;;2.70;99.90;;;;;;2109201;28;20065;-70
2023/01/22 05:24:43;;;;;;;23.48;21.00;;;2.70;99.90;;;;;;2108137;28;20035;-70
2023/01/22 05:25:48;;;;;;;24.92;21.77;;;2.70;99.90;;;;;;2107190;28;20506;-70